createdAt,value
2022-09-20T00:01:32.432Z,97647.75
2022-09-20T00:04:01.411Z,97646.31
2022-09-20T00:06:30.354Z,97645.28
2022-09-20T00:08:57.954Z,97643.84
2022-09-20T00:11:27.486Z,97653.91
2022-09-20T00:13:56.366Z,97646.25
2022-09-20T00:16:32.252Z,97647.38
2022-09-20T00:19:01.103Z,97652.13
2022-09-20T00:21:29.528Z,97646.50
2022-09-20T00:23:57.669Z,97638.00
2022-09-20T00:26:28.013Z,97640.97
2022-09-20T00:28:55.282Z,97643.53
2022-09-20T00:31:22.073Z,97637.34
2022-09-20T00:34:07.553Z,97645.38
2022-09-20T00:36:34.262Z,97648.66
2022-09-20T00:39:02.221Z,97650.69
2022-09-20T00:41:30.692Z,97654.69
2022-09-20T00:43:57.878Z,97656.38
2022-09-20T00:46:26.787Z,97648.44
2022-09-20T00:52:02.113Z,97649.00
2022-09-20T00:54:35.126Z,97642.81
2022-09-20T00:57:12.285Z,97644.81
2022-09-20T00:59:51.799Z,97649.97
2022-09-20T01:02:23.524Z,97648.91
2022-09-20T01:04:50.606Z,97639.84
2022-09-20T01:07:19.153Z,97641.09
2022-09-20T01:09:45.899Z,97643.53
2022-09-20T01:12:18.583Z,97641.34
2022-09-20T01:14:46.850Z,97639.16
2022-09-20T01:17:14.077Z,97636.09
2022-09-20T01:19:59.610Z,97637.06
2022-09-20T01:22:50.431Z,97632.56
2022-09-20T01:25:18.310Z,97628.88
2022-09-20T01:27:46.839Z,97621.63
2022-09-20T01:30:20.094Z,97620.03
2022-09-20T01:33:14.598Z,97619.84
2022-09-20T01:35:42.953Z,97623.88
2022-09-20T01:38:12.520Z,97613.53
2022-09-20T01:41:19.230Z,97618.97
2022-09-20T01:43:53.287Z,97620.50
2022-09-20T01:46:31.683Z,97619.59
2022-09-20T01:49:21.380Z,97622.19
2022-09-20T01:51:54.082Z,97619.81
2022-09-20T01:54:45.410Z,97618.38
2022-09-20T01:57:18.243Z,97626.72
2022-09-20T02:00:00.698Z,97624.00
2022-09-20T02:02:59.976Z,97622.75
2022-09-20T02:05:34.903Z,97620.72
2022-09-20T02:08:04.617Z,97624.72
2022-09-20T02:11:04.953Z,97623.69
2022-09-20T02:13:40.891Z,97617.91
2022-09-20T02:16:14.027Z,97625.59
2022-09-20T02:19:11.794Z,97617.22
2022-09-20T02:21:49.187Z,97621.81
2022-09-20T02:24:27.947Z,97623.25
2022-09-20T02:27:25.375Z,97623.09
2022-09-20T02:30:29.841Z,97620.59
2022-09-20T02:33:34.098Z,97616.06
2022-09-20T02:36:09.824Z,97616.44
2022-09-20T02:39:08.406Z,97620.47
2022-09-20T02:42:04.852Z,97620.47
2022-09-20T02:44:43.702Z,97627.38
2022-09-20T02:47:36.824Z,97621.75
2022-09-20T02:50:34.026Z,97613.38
2022-09-20T02:53:06.027Z,97615.94
2022-09-20T02:55:38.689Z,97611.63
2022-09-20T02:58:39.172Z,97613.06
2022-09-20T03:01:44.309Z,97600.16
2022-09-20T03:04:33.293Z,97604.72
2022-09-20T03:07:21.351Z,97602.94
2022-09-20T03:10:02.058Z,97599.88
2022-09-20T03:12:47.432Z,97599.31
2022-09-20T03:15:29.786Z,97611.16
2022-09-20T03:18:05.446Z,97615.16
2022-09-20T03:20:44.299Z,97607.34
2022-09-20T03:23:29.704Z,97615.53
2022-09-20T03:26:14.705Z,97615.53
2022-09-20T03:28:57.366Z,97612.66
2022-09-20T03:31:38.674Z,97615.38
2022-09-20T03:34:24.127Z,97617.53
2022-09-20T03:37:15.297Z,97616.25
2022-09-20T03:39:51.043Z,97624.63
2022-09-20T03:42:25.578Z,97621.19
2022-09-20T03:45:17.381Z,97626.97
2022-09-20T03:47:54.108Z,97631.31
2022-09-20T03:50:36.004Z,97630.94
2022-09-20T03:53:05.839Z,97630.94
2022-09-20T03:56:11.298Z,97629.09
2022-09-20T03:58:59.746Z,97626.56
2022-09-20T04:01:41.387Z,97635.63
2022-09-20T04:04:15.680Z,97635.78
2022-09-20T04:07:00.274Z,97634.34
2022-09-20T04:09:51.746Z,97636.34
2022-09-20T04:12:58.971Z,97639.47
2022-09-20T04:15:32.646Z,97635.84
2022-09-20T04:18:11.775Z,97630.94
2022-09-20T04:20:57.935Z,97634.94
2022-09-20T04:23:30.364Z,97644.38
2022-09-20T04:25:57.972Z,97643.66
2022-09-20T04:28:34.727Z,97635.88
2022-09-20T04:31:10.213Z,97637.91
2022-09-20T04:33:41.762Z,97633.69
2022-09-20T04:36:31.244Z,97634.97
2022-09-20T04:39:34.608Z,97637.72
2022-09-20T04:42:35.242Z,97638.06
2022-09-20T04:45:11.302Z,97640.50
2022-09-20T04:48:14.631Z,97646.31
2022-09-20T04:51:29.482Z,97641.41
2022-09-20T04:53:59.344Z,97652.53
2022-09-20T04:56:28.983Z,97657.31
2022-09-20T04:59:06.019Z,97665.38
2022-09-20T05:02:15.042Z,97673.41
2022-09-20T05:05:05.033Z,97683.59
2022-09-20T05:08:21.077Z,97685.25
2022-09-20T05:10:59.210Z,97687.03
2022-09-20T05:13:53.065Z,97684.88
2022-09-20T05:16:50.445Z,97685.78
2022-09-20T05:19:58.527Z,97678.53
2022-09-20T05:23:02.046Z,97682.16
2022-09-20T05:25:38.386Z,97678.19
2022-09-20T05:28:41.518Z,97666.75
2022-09-20T05:31:26.667Z,97676.72
2022-09-20T05:34:04.422Z,97672.38
2022-09-20T05:36:42.062Z,97677.63
2022-09-20T05:39:29.864Z,97670.56
2022-09-20T05:41:58.389Z,97667.63
2022-09-20T05:44:47.272Z,97673.44
2022-09-20T05:48:05.467Z,97679.09
2022-09-20T05:51:03.113Z,97674.91
2022-09-20T05:54:06.780Z,97678.72
2022-09-20T05:56:51.216Z,97674.50
2022-09-20T05:59:36.499Z,97687.06
2022-09-20T06:02:26.403Z,97686.16
2022-09-20T06:05:15.010Z,97690.88
2022-09-20T06:07:53.054Z,97688.53
2022-09-20T06:10:48.780Z,97687.97
2022-09-20T06:13:20.132Z,97682.31
2022-09-20T06:15:58.204Z,97681.59
2022-09-20T06:18:40.300Z,97690.50
2022-09-20T06:21:40.371Z,97685.59
2022-09-20T06:24:19.712Z,97686.50
2022-09-20T06:26:46.740Z,97689.59
2022-09-20T06:29:14.975Z,97687.56
2022-09-20T06:31:41.718Z,97693.72
2022-09-20T06:34:10.962Z,97700.78
2022-09-20T06:36:58.563Z,97693.66
2022-09-20T06:39:51.025Z,97693.59
2022-09-20T06:42:17.991Z,97692.25
2022-09-20T06:44:44.703Z,97693.13
2022-09-20T06:47:12.750Z,97697.41
2022-09-20T06:49:42.365Z,97697.00
2022-09-20T06:52:14.136Z,97696.72
2022-09-20T06:54:45.876Z,97693.72
2022-09-20T06:57:17.539Z,97687.97
2022-09-20T06:59:45.307Z,97690.59
2022-09-20T07:02:12.387Z,97698.88
2022-09-20T07:04:40.046Z,97694.50
2022-09-20T07:07:09.790Z,97690.31
2022-09-20T07:09:36.739Z,97698.63
2022-09-20T07:12:03.580Z,97707.59
2022-09-20T07:14:31.138Z,97716.34
2022-09-20T07:16:57.817Z,97711.84
2022-09-20T07:19:24.586Z,97704.59
2022-09-20T07:21:51.343Z,97705.66
2022-09-20T07:24:18.177Z,97701.19
2022-09-20T07:27:01.070Z,97695.75
2022-09-20T07:29:28.719Z,97697.22
2022-09-20T07:31:56.648Z,97701.25
2022-09-20T07:34:24.085Z,97705.28
2022-09-20T07:36:51.335Z,97712.03
2022-09-20T07:39:18.615Z,97715.41
2022-09-20T07:41:50.736Z,97714.75
2022-09-20T07:44:21.587Z,97714.28
2022-09-20T07:46:49.773Z,97718.94
2022-09-20T07:49:16.702Z,97711.53
2022-09-20T07:51:43.686Z,97712.75
2022-09-20T07:54:12.959Z,97710.63
2022-09-20T07:56:40.121Z,97716.56
2022-09-20T07:59:07.031Z,97712.28
2022-09-20T08:01:35.139Z,97720.38
2022-09-20T08:04:02.156Z,97724.31
2022-09-20T08:06:28.919Z,97714.78
2022-09-20T08:08:55.678Z,97722.47
2022-09-20T08:11:27.721Z,97727.09
2022-09-20T08:14:11.302Z,97728.28
2022-09-20T08:16:40.652Z,97728.91
2022-09-20T08:19:07.444Z,97729.31
2022-09-20T08:21:35.674Z,97727.19
2022-09-20T08:24:04.175Z,97729.72
2022-09-20T08:26:31.681Z,97726.56
2022-09-20T08:28:59.818Z,97728.03
2022-09-20T08:31:31.576Z,97732.84
2022-09-20T08:33:59.214Z,97738.34
2022-09-20T08:36:26.489Z,97726.94
2022-09-20T08:41:45.011Z,97739.97
2022-09-20T08:44:36.242Z,97735.34
2022-09-20T08:47:22.512Z,97741.72
2022-09-20T08:49:56.739Z,97743.28
2022-09-20T08:52:36.986Z,97746.75
2022-09-20T08:55:37.528Z,97743.47
2022-09-20T08:58:08.519Z,97743.47
2022-09-20T09:00:37.226Z,97743.31
2022-09-20T09:03:06.800Z,97747.31
2022-09-20T09:05:40.519Z,97741.69
2022-09-20T09:08:16.371Z,97740.50
2022-09-20T09:10:46.437Z,97733.41
2022-09-20T09:13:22.969Z,97736.84
2022-09-20T09:15:54.704Z,97734.66
2022-09-20T09:18:21.438Z,97737.09
2022-09-20T09:20:48.673Z,97729.59
2022-09-20T09:23:26.959Z,97738.44
2022-09-20T09:25:56.512Z,97729.44
2022-09-20T09:28:25.808Z,97737.78
2022-09-20T09:30:52.722Z,97729.22
2022-09-20T09:33:30.699Z,97723.66
2022-09-20T09:36:00.629Z,97721.28
2022-09-20T09:38:30.202Z,97729.03
2022-09-20T09:40:59.460Z,97733.88
2022-09-20T09:43:30.083Z,97721.50
2022-09-20T09:46:27.196Z,97723.75
2022-09-20T09:49:16.969Z,97727.72
2022-09-20T09:52:02.668Z,97716.13
2022-09-20T09:54:38.964Z,97714.63
2022-09-20T09:57:23.454Z,97713.22
2022-09-20T10:00:19.127Z,97717.31
2022-09-20T10:02:48.307Z,97720.06
2022-09-20T10:05:24.096Z,97707.63
2022-09-20T10:08:06.046Z,97709.31
2022-09-20T10:10:55.162Z,97706.59
2022-09-20T10:13:41.254Z,97713.44
2022-09-20T10:16:32.293Z,97714.06
2022-09-20T10:19:22.602Z,97712.63
2022-09-20T10:22:01.823Z,97706.28
2022-09-20T10:24:31.479Z,97713.97
2022-09-20T10:27:16.356Z,97713.88
2022-09-20T10:29:58.246Z,97716.41
2022-09-20T10:32:31.567Z,97709.44
2022-09-20T10:35:01.999Z,97710.91
2022-09-20T10:37:50.330Z,97704.50
2022-09-20T10:40:47.418Z,97709.19
2022-09-20T10:43:33.041Z,97709.66
2022-09-20T10:46:31.838Z,97709.91
2022-09-20T10:49:24.980Z,97702.34
2022-09-20T10:52:19.217Z,97700.59
2022-09-20T10:55:04.709Z,97703.81
2022-09-20T10:57:52.893Z,97700.22
2022-09-20T11:00:32.458Z,97705.03
2022-09-20T11:03:23.574Z,97708.34
2022-09-20T11:05:59.582Z,97712.19
2022-09-20T11:08:33.853Z,97707.06
2022-09-20T11:11:22.833Z,97696.81
2022-09-20T11:14:21.310Z,97711.03
2022-09-20T11:17:12.117Z,97719.53
2022-09-20T11:20:16.326Z,97714.84
2022-09-20T11:22:48.072Z,97721.81
2022-09-20T11:25:29.460Z,97718.44
2022-09-20T11:28:14.371Z,97720.59
2022-09-20T11:31:16.838Z,97729.44
2022-09-20T11:34:03.278Z,97723.41
2022-09-20T11:36:39.501Z,97729.44
2022-09-20T11:39:19.418Z,97718.63
2022-09-20T11:41:47.218Z,97722.41
2022-09-20T11:44:16.970Z,97730.53
2022-09-20T11:46:52.975Z,97730.72
2022-09-20T11:49:48.710Z,97729.75
2022-09-20T11:52:36.379Z,97721.19
2022-09-20T11:55:21.843Z,97721.03
2022-09-20T11:58:04.687Z,97717.66
2022-09-20T12:00:35.359Z,97730.84
2022-09-20T12:03:04.627Z,97720.13
2022-09-20T12:05:35.565Z,97711.22
2022-09-20T12:08:05.621Z,97711.72
2022-09-20T12:10:35.444Z,97708.53
2022-09-20T12:13:05.686Z,97715.41
2022-09-20T12:15:42.367Z,97717.47
2022-09-20T12:18:33.155Z,97714.06
2022-09-20T12:21:01.310Z,97713.75
2022-09-20T12:23:43.278Z,97714.91
2022-09-20T12:26:22.692Z,97714.06
2022-09-20T12:29:01.287Z,97710.69
2022-09-20T12:31:34.209Z,97714.16
2022-09-20T12:34:01.172Z,97712.22
2022-09-20T12:36:44.179Z,97711.31
2022-09-20T12:39:17.658Z,97707.69
2022-09-20T12:41:51.973Z,97707.06
2022-09-20T12:44:28.980Z,97706.78
2022-09-20T12:46:58.780Z,97701.09
2022-09-20T12:49:55.557Z,97708.25
2022-09-20T12:52:50.718Z,97716.13
2022-09-20T12:55:49.600Z,97705.13
2022-09-20T12:58:16.394Z,97710.41
2022-09-20T13:01:04.436Z,97699.69
2022-09-20T13:03:40.255Z,97709.19
2022-09-20T13:06:12.482Z,97701.03
2022-09-20T13:08:57.906Z,97703.34
2022-09-20T13:11:43.372Z,97708.53
2022-09-20T13:14:13.127Z,97703.00
2022-09-20T13:17:02.720Z,97702.53
2022-09-20T13:19:38.082Z,97702.53
2022-09-20T13:22:14.939Z,97705.22
2022-09-20T13:24:43.207Z,97703.78
2022-09-20T13:27:19.273Z,97701.22
2022-09-20T13:29:46.406Z,97710.94
2022-09-20T13:32:30.056Z,97700.34
2022-09-20T13:35:16.834Z,97694.75
2022-09-20T13:37:55.094Z,97697.25
2022-09-20T13:40:35.558Z,97695.22
2022-09-20T13:43:23.613Z,97704.44
2022-09-20T13:46:10.904Z,97706.41
2022-09-20T13:48:39.361Z,97699.69
2022-09-20T13:51:27.376Z,97699.44
2022-09-20T13:53:55.843Z,97700.16
2022-09-20T13:56:28.778Z,97707.25
2022-09-20T13:58:59.265Z,97709.88
2022-09-20T14:01:31.976Z,97706.09
2022-09-20T14:04:09.878Z,97696.75
2022-09-20T14:06:37.565Z,97707.44
2022-09-20T14:09:10.983Z,97699.69
2022-09-20T14:11:39.947Z,97698.66
2022-09-20T14:14:08.405Z,97701.25
2022-09-20T14:16:41.017Z,97699.13
2022-09-20T14:19:08.876Z,97694.31
2022-09-20T14:21:37.620Z,97688.47
2022-09-20T14:24:25.837Z,97690.78
2022-09-20T14:27:19.331Z,97693.63
2022-09-20T14:29:51.458Z,97699.56
2022-09-20T14:32:18.398Z,97698.31
2022-09-20T14:34:58.823Z,97693.91
2022-09-20T14:37:25.847Z,97696.03
2022-09-20T14:39:57.083Z,97688.88
2022-09-20T14:42:31.297Z,97691.81
2022-09-20T14:44:58.449Z,97690.00
2022-09-20T14:47:36.999Z,97689.56
2022-09-20T14:50:24.879Z,97689.25
2022-09-20T14:53:21.540Z,97689.19
2022-09-20T14:56:00.445Z,97691.59
2022-09-20T14:58:27.338Z,97687.97
2022-09-20T15:01:05.536Z,97688.59
2022-09-20T15:03:40.453Z,97687.53
2022-09-20T15:06:10.913Z,97687.13
2022-09-20T15:08:37.584Z,97688.16
2022-09-20T15:11:04.670Z,97694.41
2022-09-20T15:13:31.490Z,97685.13
2022-09-20T15:15:58.444Z,97680.25
2022-09-20T15:18:27.697Z,97683.66
2022-09-20T15:20:55.384Z,97677.50
2022-09-20T15:23:22.504Z,97674.22
2022-09-20T15:25:53.659Z,97685.16
2022-09-20T15:28:21.103Z,97684.44
2022-09-20T15:30:50.485Z,97687.09
2022-09-20T15:33:18.958Z,97687.16
2022-09-20T15:35:46.173Z,97692.06
2022-09-20T15:38:14.105Z,97691.13
2022-09-20T15:40:47.900Z,97691.84
2022-09-20T15:43:17.135Z,97683.22
2022-09-20T15:45:50.268Z,97679.09
2022-09-20T15:48:22.854Z,97670.53
2022-09-20T15:51:03.220Z,97667.75
2022-09-20T15:53:32.775Z,97662.66
2022-09-20T15:56:01.837Z,97671.94
2022-09-20T15:58:36.212Z,97661.44
2022-09-20T16:01:07.979Z,97666.94
2022-09-20T16:03:36.134Z,97672.09
2022-09-20T16:06:07.190Z,97671.06
2022-09-20T16:08:38.906Z,97672.84
2022-09-20T16:11:07.440Z,97674.06
2022-09-20T16:13:36.327Z,97676.59
2022-09-20T16:16:04.221Z,97681.56
2022-09-20T16:18:50.174Z,97683.47
2022-09-20T16:21:18.478Z,97685.47
2022-09-20T16:23:53.400Z,97685.31
2022-09-20T16:26:21.594Z,97681.81
2022-09-20T16:28:49.205Z,97691.31
2022-09-20T16:31:41.624Z,97693.28
2022-09-20T16:34:22.922Z,97698.06
2022-09-20T16:36:51.854Z,97688.13
2022-09-20T16:39:19.846Z,97688.28
2022-09-20T16:41:48.244Z,97687.09
2022-09-20T16:44:25.154Z,97689.88
2022-09-20T16:46:59.121Z,97693.00
2022-09-20T16:49:30.341Z,97698.88
2022-09-20T16:52:01.128Z,97699.25
2022-09-20T16:54:33.081Z,97696.97
2022-09-20T16:57:04.558Z,97703.56
2022-09-20T16:59:31.278Z,97705.75
2022-09-20T17:02:00.234Z,97706.09
2022-09-20T17:04:27.071Z,97719.50
2022-09-20T17:06:53.816Z,97717.25
2022-09-20T17:09:20.967Z,97711.25
2022-09-20T17:11:51.737Z,97714.34
2022-09-20T17:14:20.614Z,97720.19
2022-09-20T17:16:49.114Z,97715.03
2022-09-20T17:19:18.673Z,97713.97
2022-09-20T17:21:51.753Z,97709.53
2022-09-20T17:24:20.687Z,97718.84
2022-09-20T17:26:48.892Z,97718.25
2022-09-20T17:29:17.641Z,97720.97
2022-09-20T17:31:51.576Z,97715.19
2022-09-20T17:34:21.914Z,97714.81
2022-09-20T17:36:49.456Z,97715.28
2022-09-20T17:39:16.775Z,97721.25
2022-09-20T17:41:45.926Z,97722.34
2022-09-20T17:44:13.033Z,97727.59
2022-09-20T17:46:41.866Z,97730.06
2022-09-20T17:49:10.940Z,97729.09
2022-09-20T17:51:39.915Z,97732.44
2022-09-20T17:54:07.643Z,97736.50
2022-09-20T17:56:35.507Z,97725.13
2022-09-20T17:59:03.955Z,97739.47
2022-09-20T18:01:32.535Z,97731.72
2022-09-20T18:04:01.090Z,97739.91
2022-09-20T18:06:31.828Z,97734.19
2022-09-20T18:09:01.144Z,97738.19
2022-09-20T18:11:35.063Z,97746.22
2022-09-20T18:14:03.465Z,97747.31
2022-09-20T18:16:31.102Z,97753.19
2022-09-20T18:18:59.840Z,97751.41
2022-09-20T18:21:28.767Z,97757.06
2022-09-20T18:23:57.333Z,97756.56
2022-09-20T18:26:26.642Z,97761.50
2022-09-20T18:28:53.397Z,97753.34
2022-09-20T18:31:21.445Z,97761.63
2022-09-20T18:33:49.771Z,97756.81
2022-09-20T18:36:16.837Z,97758.88
2022-09-20T18:38:47.187Z,97758.03
2022-09-20T18:41:14.498Z,97759.31
2022-09-20T18:43:44.440Z,97755.75
2022-09-20T18:46:12.211Z,97752.97
2022-09-20T18:48:40.266Z,97758.94
2022-09-20T18:51:08.583Z,97757.41
2022-09-20T18:53:38.517Z,97753.06
2022-09-20T18:56:06.478Z,97757.16
2022-09-20T18:58:33.551Z,97766.72
2022-09-20T19:01:11.898Z,97765.03
2022-09-20T19:03:54.461Z,97764.88
2022-09-20T19:06:24.296Z,97769.56
2022-09-20T19:09:43.613Z,97763.19
2022-09-20T19:12:20.035Z,97770.50
2022-09-20T19:15:04.671Z,97772.28
2022-09-20T19:18:28.514Z,97774.16
2022-09-20T19:21:13.855Z,97778.56
2022-09-20T19:23:43.558Z,97784.41
2022-09-20T19:26:21.870Z,97789.66
2022-09-20T19:28:50.231Z,97791.56
2022-09-20T19:31:27.054Z,97788.53
2022-09-20T19:33:55.219Z,97784.94
2022-09-20T19:36:23.578Z,97797.13
2022-09-20T19:39:02.730Z,97790.63
2022-09-20T19:41:39.576Z,97793.84
2022-09-20T19:44:30.638Z,97794.28
2022-09-20T19:47:34.206Z,97789.22
2022-09-20T19:50:15.943Z,97798.53
2022-09-20T19:52:44.055Z,97798.25
2022-09-20T19:55:14.396Z,97803.47
2022-09-20T19:57:47.226Z,97803.94
2022-09-20T20:00:17.030Z,97805.25
2022-09-20T20:02:44.777Z,97804.28
2022-09-20T20:05:19.820Z,97804.13
2022-09-20T20:08:16.989Z,97806.75
2022-09-20T20:11:17.115Z,97803.88
2022-09-20T20:14:05.182Z,97815.31
2022-09-20T20:17:07.515Z,97806.19
2022-09-20T20:19:42.938Z,97812.16
2022-09-20T20:22:12.331Z,97810.56
2022-09-20T20:24:51.773Z,97807.69
2022-09-20T20:27:19.495Z,97804.78
2022-09-20T20:29:46.493Z,97811.59
2022-09-20T20:32:13.463Z,97801.31
2022-09-20T20:34:40.295Z,97817.81
2022-09-20T20:37:07.600Z,97810.28
2022-09-20T20:39:34.439Z,97818.53
2022-09-20T20:42:02.915Z,97815.66
2022-09-20T20:44:35.201Z,97819.72
2022-09-20T20:47:03.215Z,97825.81
2022-09-20T20:49:30.235Z,97811.19
2022-09-20T20:51:58.485Z,97819.44
2022-09-20T20:54:25.743Z,97824.22
2022-09-20T20:56:52.431Z,97816.69
2022-09-20T20:59:19.223Z,97820.03
2022-09-20T21:01:46.104Z,97824.66
2022-09-20T21:04:13.508Z,97816.28
2022-09-20T21:06:41.588Z,97823.66
2022-09-20T21:09:09.823Z,97820.78
2022-09-20T21:11:38.526Z,97825.44
2022-09-20T21:14:07.276Z,97828.03
2022-09-20T21:16:36.236Z,97823.84
2022-09-20T21:19:04.314Z,97820.97
2022-09-20T21:21:34.035Z,97822.13
2022-09-20T21:24:05.964Z,97828.78
2022-09-20T21:26:34.868Z,97832.09
2022-09-20T21:29:06.595Z,97831.25
2022-09-20T21:31:36.336Z,97833.13
2022-09-20T21:34:08.300Z,97826.63
2022-09-20T21:36:36.284Z,97837.47
2022-09-20T21:39:03.698Z,97824.34
2022-09-20T21:41:32.793Z,97833.13
2022-09-20T21:44:00.811Z,97826.78
2022-09-20T21:46:30.433Z,97826.66
2022-09-20T21:48:59.450Z,97827.09
2022-09-20T21:51:27.055Z,97828.97
2022-09-20T21:53:56.543Z,97819.00
2022-09-20T21:56:25.016Z,97815.38
2022-09-20T21:58:51.895Z,97822.00
2022-09-20T22:01:22.470Z,97809.44
2022-09-20T22:03:50.062Z,97814.66
2022-09-20T22:06:19.086Z,97813.22
2022-09-20T22:08:53.920Z,97808.72
2022-09-20T22:11:22.235Z,97814.09
2022-09-20T22:13:50.078Z,97807.59
2022-09-20T22:16:34.391Z,97817.56
2022-09-20T22:19:01.880Z,97806.41
2022-09-20T22:21:31.408Z,97811.91
2022-09-20T22:24:01.114Z,97815.22
2022-09-20T22:26:32.879Z,97808.72
2022-09-20T22:29:00.469Z,97808.47
2022-09-20T22:31:29.056Z,97806.56
2022-09-20T22:33:57.738Z,97807.88
2022-09-20T22:36:26.576Z,97809.88
2022-09-20T22:38:53.918Z,97813.22
2022-09-20T22:41:21.117Z,97809.47
2022-09-20T22:43:47.957Z,97807.00
2022-09-20T22:46:17.470Z,97804.53
2022-09-20T22:48:44.658Z,97808.00
2022-09-20T22:51:19.901Z,97805.09
2022-09-20T22:53:47.538Z,97804.97
2022-09-20T22:56:21.130Z,97801.78
2022-09-20T22:58:53.008Z,97797.00
2022-09-20T23:01:30.734Z,97801.59
2022-09-20T23:04:04.019Z,97802.06
2022-09-20T23:06:33.329Z,97806.63
2022-09-20T23:09:02.193Z,97804.34
2022-09-20T23:11:29.489Z,97803.03
2022-09-20T23:14:00.778Z,97804.47
2022-09-20T23:16:29.436Z,97799.72
2022-09-20T23:18:57.446Z,97810.69
2022-09-20T23:21:24.775Z,97799.56
2022-09-20T23:23:59.407Z,97796.53
2022-09-20T23:26:27.743Z,97797.25
2022-09-20T23:28:57.407Z,97792.34
2022-09-20T23:31:24.571Z,97797.81
2022-09-20T23:33:54.239Z,97798.41
2022-09-20T23:36:21.987Z,97802.41
2022-09-20T23:38:49.146Z,97803.59
2022-09-20T23:41:19.795Z,97804.00
2022-09-20T23:43:46.745Z,97807.50
2022-09-20T23:46:14.883Z,97807.63
2022-09-20T23:48:42.123Z,97813.53
2022-09-20T23:51:10.782Z,97804.84
2022-09-20T23:53:37.531Z,97804.13
2022-09-20T23:56:06.206Z,97799.94
2022-09-20T23:58:36.201Z,97805.44
